Time;durP1;ratioP1;P1;durP2;ratioP2;P2;SDS_P1;SDS_P2;PMS_P1;PMS_P2;Temp;Humidity;BMP_temperature;BMP_pressure;BME280_temperature;BME280_humidity;BME280_pressure;Samples;Min_cycle;Max_cycle;Signal;HPM_P1;HPM_P2
2023/03/21 00:07:23;;;;;;;1.27;1.17;;;;;;;17.16;58.89;101203.75;20912983;28;20051;-83
2023/03/21 00:17:29;;;;;;;0.70;0.70;;;;;;;17.12;59.04;101191.53;20877358;28;20048;-84
2023/03/21 00:27:32;;;;;;;1.10;0.90;;;;;;;17.13;59.18;101182.47;20865126;28;20081;-83
2023/03/21 00:37:55;;;;;;;1.25;0.85;;;;;;;17.16;59.23;101186.78;20877948;28;20076;-84
2023/03/21 00:47:57;;;;;;;1.00;0.90;;;;;;;17.11;59.35;101157.53;20890579;28;20123;-84
2023/03/21 00:57:59;;;;;;;1.27;1.15;;;;;;;17.15;59.43;101164.38;20912047;28;20496;-84
2023/03/21 01:08:03;;;;;;;0.80;0.80;;;;;;;17.15;59.41;101158.16;20875012;28;20112;-83
2023/03/21 01:18:26;;;;;;;0.70;0.70;;;;;;;17.15;59.41;101148.25;20876076;28;20139;-84
2023/03/21 01:28:28;;;;;;;0.70;0.70;;;;;;;17.07;59.57;101129.19;20871880;28;20041;-84
2023/03/21 01:38:30;;;;;;;0.85;0.85;;;;;;;17.13;59.58;101126.00;20902767;28;20459;-84
2023/03/21 01:48:33;;;;;;;0.75;0.75;;;;;;;17.15;59.65;101125.88;20888945;28;20041;-83
2023/03/21 01:59:12;;;;;;;0.88;0.88;;;;;;;17.13;59.79;101117.91;20886803;28;20524;-84
2023/03/21 02:09:45;;;;;;;1.15;1.05;;;;;;;17.14;59.83;101125.00;20880643;28;20571;-84
2023/03/21 02:20:21;;;;;;;0.90;0.90;;;;;;;17.13;59.78;101096.41;20882057;28;20045;-84
2023/03/21 02:30:37;;;;;;;0.93;0.90;;;;;;;17.05;59.92;101072.84;20873359;28;20055;-84
2023/03/21 02:41:02;;;;;;;1.10;1.10;;;;;;;17.10;59.96;101070.63;20861312;28;20490;-84
2023/03/21 02:51:10;;;;;;;1.10;1.05;;;;;;;17.12;59.99;101075.88;20872253;28;20056;-84
2023/03/21 03:01:13;;;;;;;1.10;1.00;;;;;;;17.13;60.17;101069.50;20884782;28;20044;-84
2023/03/21 03:11:29;;;;;;;0.80;0.80;;;;;;;17.13;60.23;101063.28;20885580;28;20084;-84
2023/03/21 03:22:38;;;;;;;1.63;1.10;;;;;;;17.12;60.20;101059.72;20903045;28;20390;-84
2023/03/21 03:46:48;;;;;;;1.15;0.90;;;;;;;17.12;60.25;101050.81;20344306;29;20052;-84
2023/03/21 03:57:51;;;;;;;1.00;0.90;;;;;;;17.10;60.55;101043.72;20141185;29;20048;-84
2023/03/21 04:08:43;;;;;;;0.75;0.73;;;;;;;17.10;60.30;101048.22;20378362;29;20126;-84
2023/03/21 04:32:42;;;;;;;0.70;0.70;;;;;;;17.10;60.46;101037.47;20419133;29;20055;-84
2023/03/21 04:43:10;;;;;;;0.60;0.60;;;;;;;17.08;60.46;101029.56;20569251;28;20622;-84
2023/03/21 04:54:14;;;;;;;0.68;0.63;;;;;;;17.11;60.57;101017.66;20710021;28;20046;-84
2023/03/21 05:04:26;;;;;;;0.70;0.70;;;;;;;17.07;60.61;101005.47;20762714;28;20045;-84
2023/03/21 05:15:24;;;;;;;0.70;0.70;;;;;;;17.17;60.63;101002.84;20662434;28;20124;-84
2023/03/21 05:25:48;;;;;;;1.20;0.65;;;;;;;17.21;60.65;101002.44;20642234;28;20063;-84
2023/03/21 05:36:20;;;;;;;0.57;0.50;;;;;;;17.23;60.80;100995.13;20491053;28;20537;-83
2023/03/21 05:46:26;;;;;;;0.75;0.65;;;;;;;17.29;60.71;100998.28;20478103;29;20451;-84
2023/03/21 05:57:19;;;;;;;0.77;0.77;;;;;;;17.33;60.55;101005.09;20482850;29;20075;-84
2023/03/21 06:08:04;;;;;;;0.73;0.73;;;;;;;17.37;60.54;100993.09;20400219;29;20055;-84
2023/03/21 06:18:06;;;;;;;0.68;0.68;;;;;;;17.42;60.50;100993.56;20461305;29;20074;-84
2023/03/21 06:29:04;;;;;;;0.60;0.60;;;;;;;17.46;60.49;100986.94;20261249;29;20040;-84
2023/03/21 06:52:12;;;;;;;0.70;0.70;;;;;;;17.54;60.60;100995.19;20582362;28;20398;-84
2023/03/21 07:03:32;;;;;;;0.80;0.80;;;;;;;17.57;60.34;101001.28;20558035;28;20134;-84
2023/03/21 07:16:00;;;;;;;0.70;0.70;;;;;;;17.60;60.47;101006.41;20561945;28;20094;-85
2023/03/21 07:26:03;;;;;;;0.57;0.57;;;;;;;17.54;60.30;100994.34;20589509;28;20580;-81
2023/03/21 07:36:11;;;;;;;0.98;0.93;;;;;;;17.69;60.92;101005.66;20781747;28;20069;-82
2023/03/21 07:46:13;;;;;;;1.55;0.90;;;;;;;17.72;61.79;100999.13;20889798;28;20041;-80
2023/03/21 07:56:15;;;;;;;0.90;0.75;;;;;;;17.76;62.02;101009.50;20899179;28;20041;-81
2023/03/21 08:06:16;;;;;;;0.63;0.60;;;;;;;17.84;62.13;100998.06;20894014;28;20083;-81
2023/03/21 08:16:19;;;;;;;0.68;0.60;;;;;;;17.87;61.92;100988.88;20889988;28;20063;-83
2023/03/21 08:26:25;;;;;;;1.20;0.50;;;;;;;17.98;62.07;100991.47;20885040;28;20033;-83
2023/03/21 08:36:27;;;;;;;0.60;0.50;;;;;;;18.03;61.83;100989.25;20895949;28;20048;-83
2023/03/21 08:46:29;;;;;;;0.98;0.60;;;;;;;18.08;61.55;100989.69;20888060;28;20040;-83
2023/03/21 08:56:31;;;;;;;2.65;0.95;;;;;;;18.11;61.29;100989.41;20881668;28;20053;-85
2023/03/21 09:06:33;;;;;;;2.17;0.47;;;;;;;18.18;61.07;100989.72;20870374;28;20049;-86
2023/03/21 09:16:34;;;;;;;1.85;0.57;;;;;;;18.22;60.81;100990.34;20878949;28;20063;-84
2023/03/21 09:26:36;;;;;;;0.80;0.63;;;;;;;18.25;60.48;100984.66;20863252;28;20087;-83
2023/03/21 09:36:40;;;;;;;0.82;0.60;;;;;;;18.29;61.90;100969.91;20893623;28;20131;-86
2023/03/21 09:46:47;;;;;;;1.27;0.80;;;;;;;18.34;64.10;100973.06;20844410;28;20059;-81
2023/03/21 09:56:53;;;;;;;2.20;0.80;;;;;;;18.36;66.58;100963.00;20842757;28;20417;-79
2023/03/21 10:06:58;;;;;;;6.85;1.58;;;;;;;18.43;69.52;100954.34;20830622;28;20037;-84
2023/03/21 10:17:09;;;;;;;1.75;1.10;;;;;;;18.43;70.78;100955.22;20848911;28;20047;-83
2023/03/21 10:27:12;;;;;;;2.80;1.17;;;;;;;18.18;70.11;100906.22;20913632;22;20095;-86
2023/03/21 10:37:15;;;;;;;3.97;1.05;;;;;;;18.31;69.02;100923.97;20759311;28;20115;-87
2023/03/21 10:47:32;;;;;;;3.25;1.42;;;;;;;18.43;67.82;100922.00;20805476;28;20108;-92
2023/03/21 10:57:36;;;;;;;2.45;1.20;;;;;;;18.44;66.75;100907.53;20701998;28;20045;-87
2023/03/21 11:07:38;;;;;;;2.15;1.25;;;;;;;18.35;66.12;100895.75;20729769;28;20121;-87
2023/03/21 11:17:40;;;;;;;2.42;1.33;;;;;;;18.23;66.12;100889.63;20740154;28;20041;-87
2023/03/21 11:28:11;;;;;;;2.30;1.30;;;;;;;18.22;66.03;100891.47;20728732;28;20502;-84
2023/03/21 11:38:26;;;;;;;2.75;1.40;;;;;;;18.18;65.79;100878.44;20717574;28;20062;-83
2023/03/21 11:48:28;;;;;;;3.72;1.23;;;;;;;17.86;65.87;100812.94;20736297;28;20398;-83
2023/03/21 11:58:38;;;;;;;1.80;1.05;;;;;;;18.14;65.79;100845.50;20754046;28;20565;-83
2023/03/21 12:08:50;;;;;;;2.17;1.55;;;;;;;18.13;65.74;100840.28;20753213;28;20077;-83
2023/03/21 12:19:06;;;;;;;2.65;1.27;;;;;;;18.11;65.50;100835.84;20753084;28;20409;-83
2023/03/21 12:29:35;;;;;;;2.45;1.10;;;;;;;18.11;65.50;100833.16;20751043;28;20129;-83
2023/03/21 12:39:40;;;;;;;2.42;1.30;;;;;;;18.11;65.47;100821.53;20749258;28;20045;-84
2023/03/21 12:49:47;;;;;;;2.08;1.10;;;;;;;18.00;65.25;100814.41;20748220;28;20030;-84
2023/03/21 12:59:58;;;;;;;1.83;1.05;;;;;;;18.07;65.12;100801.25;20731883;28;20136;-83
2023/03/21 13:10:01;;;;;;;1.58;1.17;;;;;;;18.05;64.91;100806.78;20731349;28;20042;-84
2023/03/21 13:20:25;;;;;;;1.20;0.90;;;;;;;18.05;64.72;100779.00;20748273;28;20557;-83
2023/03/21 13:30:28;;;;;;;;;;;;;;;18.07;64.40;100760.84;20746637;28;20050;-84
2023/03/21 13:40:55;;;;;;;2.20;1.30;;;;;;;18.05;64.49;100757.44;20746893;28;19922;-83
2023/03/21 13:51:04;;;;;;;1.88;1.10;;;;;;;18.05;64.44;100746.69;20744686;28;20038;-83
2023/03/21 14:01:26;;;;;;;2.58;1.30;;;;;;;18.04;64.24;100726.13;20740977;28;20056;-83
2023/03/21 14:11:28;;;;;;;2.08;1.13;;;;;;;17.98;64.22;100703.25;20740927;28;20070;-83
2023/03/21 14:21:32;;;;;;;1.27;0.80;;;;;;;17.94;64.40;100702.69;20741400;28;20104;-83
2023/03/21 14:31:34;;;;;;;1.77;0.90;;;;;;;18.01;64.14;100699.47;20744280;28;20050;-83
2023/03/21 14:41:53;;;;;;;2.05;0.88;;;;;;;18.02;64.12;100687.69;20725683;28;20612;-83
2023/03/21 14:51:58;;;;;;;2.15;1.10;;;;;;;18.02;63.88;100674.22;20741823;28;20085;-83
2023/03/21 15:02:22;;;;;;;1.15;0.93;;;;;;;17.91;63.83;100646.44;20742636;28;20458;-83
2023/03/21 15:12:24;;;;;;;1.60;1.20;;;;;;;18.00;63.83;100652.78;20752766;28;20109;-84
2023/03/21 15:22:54;;;;;;;2.50;1.40;;;;;;;17.98;63.73;100646.69;20755600;28;20133;-83
2023/03/21 15:32:57;;;;;;;1.70;1.00;;;;;;;17.96;63.42;100652.22;20734205;28;20067;-83
2023/03/21 15:43:06;;;;;;;1.60;1.10;;;;;;;17.96;63.41;100643.28;20707827;28;20077;-82
2023/03/21 15:53:14;;;;;;;3.17;1.13;;;;;;;17.98;63.15;100644.00;20724535;28;20046;-81
2023/03/21 16:03:20;;;;;;;2.17;1.20;;;;;;;17.96;63.08;100648.69;20714873;28;20056;-82
2023/03/21 16:13:22;;;;;;;1.63;1.20;;;;;;;17.86;62.86;100615.53;20709826;28;20046;-86
2023/03/21 16:23:24;;;;;;;1.73;1.40;;;;;;;17.90;62.78;100615.09;20712088;28;20410;-85
2023/03/21 16:33:26;;;;;;;2.38;1.27;;;;;;;17.88;62.64;100625.13;20718341;28;20046;-86
2023/03/21 16:43:28;;;;;;;1.58;1.10;;;;;;;17.81;62.46;100624.88;20734210;28;20041;-83
2023/03/21 16:53:30;;;;;;;1.98;1.20;;;;;;;17.83;62.44;100651.66;20715965;28;20046;-83
2023/03/21 17:03:33;;;;;;;1.85;1.30;;;;;;;17.80;62.33;100674.34;20732959;28;20462;-83
2023/03/21 17:13:34;;;;;;;2.42;1.27;;;;;;;17.92;62.49;100671.50;20741147;28;20046;-83
2023/03/21 17:23:37;;;;;;;3.22;1.48;;;;;;;17.89;62.68;100669.09;20741856;28;20395;-86
2023/03/21 17:33:39;;;;;;;1.33;1.23;;;;;;;17.91;62.51;100664.41;20728869;28;20046;-86
2023/03/21 17:43:40;;;;;;;2.15;1.30;;;;;;;17.90;62.58;100668.09;20744694;28;20058;-86
2023/03/21 17:53:44;;;;;;;3.38;1.30;;;;;;;17.89;62.85;100677.16;20729892;28;20057;-88
2023/03/21 18:03:46;;;;;;;2.53;1.55;;;;;;;17.77;62.63;100671.94;20733895;28;20478;-88
2023/03/21 18:13:47;;;;;;;1.77;1.25;;;;;;;17.39;62.65;100612.53;20714927;28;20113;-88
2023/03/21 18:23:49;;;;;;;2.33;1.65;;;;;;;17.82;62.61;100672.34;20739670;28;20072;-88
2023/03/21 18:33:51;;;;;;;2.60;1.48;;;;;;;17.88;62.61;100675.47;20728796;28;20084;-87
2023/03/21 18:43:53;;;;;;;2.17;1.50;;;;;;;17.87;62.78;100658.44;20736458;28;20569;-87
2023/03/21 18:54:15;;;;;;;3.17;1.77;;;;;;;17.77;62.55;100646.84;20753426;28;20038;-87
2023/03/21 19:04:18;;;;;;;2.00;1.50;;;;;;;17.81;62.60;100646.44;20748968;28;20077;-88
2023/03/21 19:14:30;;;;;;;1.98;1.50;;;;;;;17.76;62.39;100635.22;20741079;28;20081;-88
2023/03/21 19:24:31;;;;;;;2.30;1.50;;;;;;;17.78;62.18;100651.22;20745333;28;20038;-88
2023/03/21 19:34:33;;;;;;;2.47;1.73;;;;;;;17.85;62.19;100633.50;20730520;28;20389;-88
2023/03/21 19:44:35;;;;;;;2.33;1.60;;;;;;;17.86;62.11;100645.16;20733472;28;20084;-88
2023/03/21 19:54:37;;;;;;;2.35;1.65;;;;;;;17.85;62.08;100638.06;20734236;28;20562;-88
2023/03/21 20:04:39;;;;;;;2.25;1.70;;;;;;;17.85;62.12;100633.50;20740242;28;20042;-88
2023/03/21 20:14:46;;;;;;;1.65;1.40;;;;;;;17.73;62.06;100613.97;20741160;28;20690;-89
2023/03/21 20:24:48;;;;;;;2.15;1.40;;;;;;;17.85;61.88;100633.50;20735431;28;20049;-88
2023/03/21 20:34:49;;;;;;;2.05;1.50;;;;;;;17.85;61.74;100632.66;20742351;28;20050;-88
2023/03/21 20:45:07;;;;;;;2.90;2.08;;;;;;;17.85;61.79;100621.91;20736790;28;20075;-88
2023/03/21 20:55:10;;;;;;;1.88;1.50;;;;;;;17.84;61.72;100615.66;20738667;28;20467;-88
2023/03/21 21:05:12;;;;;;;1.85;1.40;;;;;;;17.79;61.56;100602.63;20741470;28;20046;-88
2023/03/21 21:15:34;;;;;;;2.15;1.55;;;;;;;17.84;61.54;100604.88;20720277;28;20509;-88
2023/03/21 21:25:36;;;;;;;1.60;1.30;;;;;;;17.85;61.32;100605.75;20734160;28;20411;-88
2023/03/21 21:35:45;;;;;;;1.40;1.30;;;;;;;17.75;61.26;100579.69;20737717;28;20053;-88
2023/03/21 21:45:48;;;;;;;1.80;1.50;;;;;;;17.78;61.33;100579.41;20721091;28;20046;-88
2023/03/21 21:55:50;;;;;;;2.10;1.30;;;;;;;17.82;60.96;100574.56;20719778;28;20080;-87
2023/03/21 22:06:00;;;;;;;1.35;1.25;;;;;;;17.83;61.14;100579.81;20731885;28;20033;-88
2023/03/21 22:16:02;;;;;;;1.50;1.40;;;;;;;17.79;60.98;100559.56;20731016;28;20046;-87
2023/03/21 22:26:05;;;;;;;1.40;1.30;;;;;;;17.69;60.88;100531.81;20721234;28;20391;-88
2023/03/21 22:36:07;;;;;;;1.67;1.33;;;;;;;17.83;60.96;100539.41;20735702;28;20088;-88
2023/03/21 22:46:09;;;;;;;1.67;1.58;;;;;;;17.85;60.33;100538.44;20729606;28;20046;-88
2023/03/21 22:56:10;;;;;;;1.42;1.33;;;;;;;17.75;60.63;100522.28;20736956;28;20052;-88
2023/03/21 23:06:12;;;;;;;1.25;1.13;;;;;;;17.78;60.62;100517.47;20724692;28;20054;-88
2023/03/21 23:16:15;;;;;;;1.25;1.15;;;;;;;17.83;60.49;100517.88;20717801;28;20443;-87
2023/03/21 23:26:21;;;;;;;2.17;1.55;;;;;;;17.83;60.60;100504.41;20707252;28;20053;-88
2023/03/21 23:36:23;;;;;;;1.38;1.20;;;;;;;17.85;60.38;100498.03;20710325;28;20502;-88
2023/03/21 23:46:25;;;;;;;0.98;0.98;;;;;;;17.77;60.44;100480.78;20730595;28;20053;-88
2023/03/21 23:56:27;;;;;;;2.97;1.58;;;;;;;17.65;60.42;100452.28;20747960;28;20050;-88
